Hector International Airport
KFAR : now visible

Airfield :











YOU CAN JOIN US ON...

 
LOGIN :

Register | Disclaimer

   EN    FR    IT 

 









Legend :    VFR   Marginal VFR   IFR   Intensive IFR   Very Intensive IFR
Visi :
Ceiling :
>= 8 km
>= 3000ft
5 to 8 km
1000 to 3000 ft
1500m to 5 km
500 to 1000 ft
800 to 1500m
200 to 500 ft
< 800m
< 200 ft
Symbols :   Thunderstorms  Fog  Heavy snow  Heavy precipitations  Wind > 20 kt







- Airport Elevation : 902 ft
- IATA code : FAR


KFAR - Hector International

CURRENT METAR :
  • 201953Z 17016G26KT 10SM CLR 31/21 A2978 RMK AO2 PK WND 14027/1854 SLP079 T03060211

EXPIRED METARs :
  • 201853Z 16014G26KT 10SM CLR 30/22 A2980 RMK AO2 PK WND 18028/1841 SLP085 T03000217
  • 201753Z 16014G25KT 10SM CLR 28/21 A2982 RMK AO2 PK WND 14027/1743 LTG DSNT N SLP093 T02780211 10289 20217 58006

TAF KFAR
Valid from the 20 at 18:00 until the 21 at 18:00 UTC


201743Z 2018/2118 16018G27KT P6SM SCT100 WS020/17040KT
FM210300 16016G24KT P6SM VCTS BKN100CB WS020/18045KT
FM211300 18013KT P6SM BKN017
No reported NOTAMs for that airfield.



MET'MAP, your aeronautical weather chart ! - Copyright ORBIFLY December 2007 - Disclaimer

ORBIFLY MET'MAP TEAM :

Programming & Development : Alexandra Zaïnal
Concept & Development : Baudouin d'Aumeries
Co-Development & Prog : Marc-Olivier Méhu
Technical & hardware support : Manuel Goepfert

Contact : metmap@orbifly.com




SOURCES & CREDITS :

   NOAA       Earth
Advisory